N42J KMIA-KDAB
Flight info
| Callsign | N42J |
|---|---|
| Flight time | 0h 58m |
| Altitude | 8500 |
| Route | KMIA/08L N0276F240 FLMGO2 WAPOM DCT WAMAL DCT TIGAE DCT FOLIG DCT ZOPRI DCT KDAB/07L |
| Aircraft | PC12/L-V/N |
Departure
| Time | 2026-04-15 22:05 |
|---|---|
| Airport | Miami International Airport (KMIA) |
Arrival
| Time | 2026-04-15 23:03 |
|---|---|
| Airport | Daytona Beach International Airport (KDAB) |
| Time | Latitude | Longitude | Altitude | Speed | Heading |
|---|---|---|---|---|---|
| 2026-04-15 21:58 | 25.80633 | -80.29011 | 9 ft | 0 kts | 110° |
| 2026-04-15 22:00 | 25.80632 | -80.29009 | 9 ft | 2 kts | 116° |
| 2026-04-15 22:00 | 25.80623 | -80.29041 | 9 ft | 15 kts | 285° |
| 2026-04-15 22:01 | 25.80565 | -80.29132 | 9 ft | 23 kts | 178° |
| 2026-04-15 22:01 | 25.80439 | -80.29205 | 9 ft | 23 kts | 267° |
| 2026-04-15 22:01 | 25.80427 | -80.29420 | 9 ft | 31 kts | 266° |
| 2026-04-15 22:01 | 25.80417 | -80.29679 | 9 ft | 35 kts | 265° |
| 2026-04-15 22:02 | 25.80403 | -80.29944 | 9 ft | 25 kts | 264° |
| 2026-04-15 22:02 | 25.80379 | -80.30054 | 9 ft | 0 kts | 222° |
| 2026-04-15 22:03 | 25.80370 | -80.30061 | 9 ft | 6 kts | 201° |
| 2026-04-15 22:04 | 25.80293 | -80.30049 | 9 ft | 12 kts | 101° |
| 2026-04-15 22:04 | 25.80305 | -80.29842 | 9 ft | 59 kts | 87° |
| 2026-04-15 22:04 | 25.80332 | -80.29152 | 97 ft | 105 kts | 84° |
| 2026-04-15 22:04 | 25.80364 | -80.28313 | 473 ft | 115 kts | 81° |
| 2026-04-15 22:05 | 25.80498 | -80.27412 | 944 ft | 120 kts | 68° |
| 2026-04-15 22:05 | 25.80816 | -80.26557 | 1425 ft | 125 kts | 60° |
| 2026-04-15 22:05 | 25.81352 | -80.25579 | 1458 ft | 159 kts | 56° |
| 2026-04-15 22:05 | 25.82002 | -80.24560 | 1838 ft | 166 kts | 53° |
| 2026-04-15 22:06 | 25.82734 | -80.23558 | 2177 ft | 173 kts | 49° |
| 2026-04-15 22:06 | 25.83573 | -80.22546 | 2523 ft | 179 kts | 46° |
| 2026-04-15 22:06 | 25.84483 | -80.21574 | 2862 ft | 184 kts | 43° |
| 2026-04-15 22:06 | 25.85460 | -80.20647 | 3201 ft | 188 kts | 39° |
| 2026-04-15 22:07 | 25.86513 | -80.19759 | 3542 ft | 192 kts | 37° |
| 2026-04-15 22:07 | 25.87634 | -80.18925 | 3881 ft | 195 kts | 34° |
| 2026-04-15 22:07 | 25.88816 | -80.18143 | 4221 ft | 198 kts | 31° |
| 2026-04-15 22:07 | 25.90045 | -80.17427 | 4559 ft | 200 kts | 28° |
| 2026-04-15 22:08 | 25.91314 | -80.16782 | 4894 ft | 202 kts | 25° |
| 2026-04-15 22:08 | 25.92563 | -80.16061 | 5186 ft | 202 kts | 44° |
| 2026-04-15 22:08 | 25.93150 | -80.14681 | 5479 ft | 203 kts | 84° |
| 2026-04-15 22:08 | 25.92826 | -80.13159 | 5806 ft | 206 kts | 103° |
| 2026-04-15 22:09 | 25.93100 | -80.11697 | 6204 ft | 199 kts | 51° |
| 2026-04-15 22:09 | 25.94316 | -80.11028 | 6597 ft | 203 kts | 3° |
| 2026-04-15 22:09 | 25.95592 | -80.11630 | 6997 ft | 210 kts | 314° |
| 2026-04-15 22:09 | 25.96310 | -80.13054 | 7378 ft | 214 kts | 295° |
| 2026-04-15 22:10 | 25.96920 | -80.14544 | 7705 ft | 216 kts | 295° |
| 2026-04-15 22:10 | 25.97553 | -80.16079 | 8038 ft | 218 kts | 296° |
| 2026-04-15 22:10 | 25.98194 | -80.17602 | 8366 ft | 219 kts | 296° |
| 2026-04-15 22:10 | 25.98866 | -80.19138 | 8589 ft | 226 kts | 297° |
| 2026-04-15 22:11 | 25.99846 | -80.20533 | 8640 ft | 233 kts | 322° |
| 2026-04-15 22:11 | 26.01152 | -80.21708 | 8640 ft | 246 kts | 322° |
| 2026-04-15 22:11 | 26.02503 | -80.22931 | 8641 ft | 256 kts | 321° |
| 2026-04-15 22:11 | 26.03871 | -80.24211 | 8643 ft | 263 kts | 320° |
| 2026-04-15 22:12 | 26.05285 | -80.25563 | 8639 ft | 270 kts | 320° |
| 2026-04-15 22:12 | 26.06717 | -80.26954 | 8634 ft | 274 kts | 320° |
| 2026-04-15 22:12 | 26.08171 | -80.28377 | 8635 ft | 278 kts | 319° |
| 2026-04-15 22:12 | 26.09624 | -80.29810 | 8637 ft | 281 kts | 319° |
| 2026-04-15 22:13 | 26.11093 | -80.31260 | 8637 ft | 283 kts | 320° |
| 2026-04-15 22:13 | 26.12571 | -80.32725 | 8637 ft | 285 kts | 319° |
| 2026-04-15 22:13 | 26.14057 | -80.34202 | 8638 ft | 286 kts | 320° |
| 2026-04-15 22:13 | 26.15545 | -80.35679 | 8640 ft | 287 kts | 319° |
| 2026-04-15 22:14 | 26.17027 | -80.37152 | 8637 ft | 287 kts | 319° |
| 2026-04-15 22:14 | 26.18513 | -80.38631 | 8637 ft | 288 kts | 319° |
| 2026-04-15 22:14 | 26.20027 | -80.40137 | 8638 ft | 288 kts | 320° |
| 2026-04-15 22:14 | 26.21525 | -80.41629 | 8640 ft | 288 kts | 320° |
| 2026-04-15 22:15 | 26.22015 | -80.42115 | 8641 ft | 288 kts | 320° |
| 2026-04-15 22:15 | 26.23024 | -80.42994 | 8608 ft | 287 kts | 330° |
| 2026-04-15 22:15 | 26.24789 | -80.43986 | 8628 ft | 285 kts | 335° |
| 2026-04-15 22:15 | 26.26605 | -80.44936 | 8637 ft | 285 kts | 336° |
| 2026-04-15 22:16 | 26.28411 | -80.45884 | 8640 ft | 285 kts | 336° |
| 2026-04-15 22:16 | 26.30202 | -80.46828 | 8645 ft | 286 kts | 336° |
| 2026-04-15 22:16 | 26.32014 | -80.47786 | 8637 ft | 287 kts | 336° |
| 2026-04-15 22:16 | 26.33826 | -80.48746 | 8624 ft | 287 kts | 335° |
| 2026-04-15 22:17 | 26.35632 | -80.49706 | 8627 ft | 287 kts | 336° |
| 2026-04-15 22:17 | 26.37437 | -80.50664 | 8627 ft | 287 kts | 335° |
| 2026-04-15 22:17 | 26.39248 | -80.51626 | 8622 ft | 287 kts | 336° |
| 2026-04-15 22:17 | 26.41044 | -80.52583 | 8630 ft | 286 kts | 335° |
| 2026-04-15 22:18 | 26.42831 | -80.53533 | 8628 ft | 286 kts | 335° |
| 2026-04-15 22:18 | 26.44646 | -80.54501 | 8629 ft | 286 kts | 335° |
| 2026-04-15 22:18 | 26.46455 | -80.55465 | 8625 ft | 286 kts | 335° |
| 2026-04-15 22:18 | 26.48246 | -80.56409 | 8621 ft | 286 kts | 338° |
| 2026-04-15 22:19 | 26.50152 | -80.57085 | 8623 ft | 285 kts | 345° |
| 2026-04-15 22:19 | 26.52057 | -80.57687 | 8621 ft | 285 kts | 345° |
| 2026-04-15 22:19 | 26.53963 | -80.58285 | 8625 ft | 285 kts | 346° |
| 2026-04-15 22:19 | 26.55873 | -80.58887 | 8629 ft | 285 kts | 345° |
| 2026-04-15 22:20 | 26.57795 | -80.59494 | 8630 ft | 285 kts | 345° |
| 2026-04-15 22:20 | 26.59694 | -80.60094 | 8629 ft | 285 kts | 345° |
| 2026-04-15 22:20 | 26.61616 | -80.60704 | 8626 ft | 285 kts | 345° |
| 2026-04-15 22:20 | 26.63517 | -80.61308 | 8628 ft | 285 kts | 345° |
| 2026-04-15 22:21 | 26.65429 | -80.61916 | 8628 ft | 285 kts | 345° |
| 2026-04-15 22:21 | 26.67329 | -80.62520 | 8630 ft | 285 kts | 345° |
| 2026-04-15 22:21 | 26.69233 | -80.63125 | 8624 ft | 285 kts | 345° |
| 2026-04-15 22:21 | 26.71156 | -80.63737 | 8631 ft | 285 kts | 345° |
| 2026-04-15 22:22 | 26.73060 | -80.64342 | 8623 ft | 285 kts | 345° |
| 2026-04-15 22:22 | 26.74955 | -80.64947 | 8635 ft | 285 kts | 345° |
| 2026-04-15 22:22 | 26.76896 | -80.65565 | 8631 ft | 285 kts | 345° |
| 2026-04-15 22:22 | 26.78805 | -80.66174 | 8637 ft | 285 kts | 345° |
| 2026-04-15 22:23 | 26.80706 | -80.66779 | 8639 ft | 285 kts | 345° |
| 2026-04-15 22:23 | 26.82617 | -80.67389 | 8635 ft | 286 kts | 345° |
| 2026-04-15 22:23 | 26.84552 | -80.68005 | 8630 ft | 286 kts | 345° |
| 2026-04-15 22:23 | 26.86448 | -80.68611 | 8636 ft | 285 kts | 345° |
| 2026-04-15 22:24 | 26.88381 | -80.69228 | 8636 ft | 285 kts | 345° |
| 2026-04-15 22:24 | 26.90288 | -80.69837 | 8639 ft | 285 kts | 345° |
| 2026-04-15 22:24 | 26.92169 | -80.70497 | 8644 ft | 285 kts | 341° |
| 2026-04-15 22:24 | 26.94075 | -80.71213 | 8648 ft | 285 kts | 341° |
| 2026-04-15 22:25 | 26.95965 | -80.71929 | 8649 ft | 285 kts | 341° |
| 2026-04-15 22:25 | 26.97835 | -80.72637 | 8648 ft | 286 kts | 341° |
| 2026-04-15 22:25 | 26.99744 | -80.73360 | 8643 ft | 286 kts | 342° |
| 2026-04-15 22:25 | 27.01619 | -80.74068 | 8644 ft | 286 kts | 341° |
| 2026-04-15 22:26 | 27.03504 | -80.74780 | 8650 ft | 286 kts | 342° |
| 2026-04-15 22:26 | 27.05395 | -80.75497 | 8648 ft | 286 kts | 341° |
| 2026-04-15 22:26 | 27.07297 | -80.76217 | 8641 ft | 286 kts | 341° |
| 2026-04-15 22:26 | 27.09171 | -80.76928 | 8641 ft | 285 kts | 342° |
| 2026-04-15 22:27 | 27.11089 | -80.77653 | 8649 ft | 285 kts | 342° |
| 2026-04-15 22:27 | 27.12970 | -80.78366 | 8643 ft | 286 kts | 342° |
| 2026-04-15 22:27 | 27.14876 | -80.79089 | 8636 ft | 285 kts | 341° |
| 2026-04-15 22:27 | 27.16766 | -80.79805 | 8641 ft | 285 kts | 341° |
| 2026-04-15 22:28 | 27.18650 | -80.80521 | 8628 ft | 284 kts | 341° |
| 2026-04-15 22:28 | 27.20519 | -80.81230 | 8640 ft | 284 kts | 341° |
| 2026-04-15 22:28 | 27.22398 | -80.81943 | 8647 ft | 284 kts | 341° |
| 2026-04-15 22:28 | 27.24282 | -80.82658 | 8644 ft | 285 kts | 341° |
| 2026-04-15 22:29 | 27.26161 | -80.83373 | 8645 ft | 285 kts | 341° |
| 2026-04-15 22:29 | 27.28030 | -80.84083 | 8646 ft | 285 kts | 341° |
| 2026-04-15 22:29 | 27.29912 | -80.84798 | 8648 ft | 285 kts | 341° |
| 2026-04-15 22:29 | 27.31803 | -80.85519 | 8649 ft | 285 kts | 342° |
| 2026-04-15 22:30 | 27.33715 | -80.86076 | 8658 ft | 284 kts | 345° |
| 2026-04-15 22:30 | 27.35632 | -80.86613 | 8662 ft | 284 kts | 346° |
| 2026-04-15 22:30 | 27.37585 | -80.87157 | 8654 ft | 285 kts | 346° |
| 2026-04-15 22:30 | 27.39503 | -80.87690 | 8656 ft | 286 kts | 346° |
| 2026-04-15 22:31 | 27.41449 | -80.88231 | 8656 ft | 286 kts | 346° |
| 2026-04-15 22:31 | 27.43395 | -80.88770 | 8654 ft | 287 kts | 347° |
| 2026-04-15 22:31 | 27.45323 | -80.89306 | 8650 ft | 286 kts | 347° |
| 2026-04-15 22:31 | 27.47270 | -80.89846 | 8654 ft | 286 kts | 346° |
| 2026-04-15 22:32 | 27.49189 | -80.90381 | 8653 ft | 286 kts | 346° |
| 2026-04-15 22:32 | 27.51133 | -80.90921 | 8654 ft | 286 kts | 346° |
| 2026-04-15 22:32 | 27.53057 | -80.91456 | 8654 ft | 286 kts | 346° |
| 2026-04-15 22:32 | 27.54998 | -80.91996 | 8652 ft | 286 kts | 346° |
| 2026-04-15 22:33 | 27.56940 | -80.92536 | 8650 ft | 286 kts | 346° |
| 2026-04-15 22:33 | 27.58865 | -80.93072 | 8649 ft | 285 kts | 346° |
| 2026-04-15 22:33 | 27.60792 | -80.93609 | 8647 ft | 285 kts | 346° |
| 2026-04-15 22:33 | 27.62722 | -80.94146 | 8653 ft | 285 kts | 346° |
| 2026-04-15 22:34 | 27.64675 | -80.94692 | 8653 ft | 285 kts | 346° |
| 2026-04-15 22:34 | 27.66595 | -80.95228 | 8653 ft | 285 kts | 346° |
| 2026-04-15 22:34 | 27.68543 | -80.95772 | 8651 ft | 285 kts | 346° |
| 2026-04-15 22:34 | 27.70467 | -80.96307 | 8651 ft | 285 kts | 346° |
| 2026-04-15 22:35 | 27.72397 | -80.96847 | 8649 ft | 285 kts | 346° |
| 2026-04-15 22:35 | 27.74313 | -80.97382 | 8651 ft | 285 kts | 346° |
| 2026-04-15 22:35 | 27.76258 | -80.97924 | 8650 ft | 285 kts | 346° |
| 2026-04-15 22:35 | 27.78178 | -80.98460 | 8650 ft | 285 kts | 346° |
| 2026-04-15 22:36 | 27.80108 | -80.99000 | 8652 ft | 285 kts | 346° |
| 2026-04-15 22:36 | 27.82039 | -80.99540 | 8651 ft | 285 kts | 346° |
| 2026-04-15 22:36 | 27.83990 | -81.00086 | 8651 ft | 285 kts | 346° |
| 2026-04-15 22:36 | 27.85902 | -81.00621 | 8650 ft | 285 kts | 346° |
| 2026-04-15 22:37 | 27.87849 | -81.01166 | 8651 ft | 285 kts | 346° |
| 2026-04-15 22:37 | 27.89773 | -81.01704 | 8647 ft | 286 kts | 346° |
| 2026-04-15 22:37 | 27.91699 | -81.02246 | 8645 ft | 286 kts | 346° |
| 2026-04-15 22:37 | 27.93659 | -81.02796 | 8649 ft | 286 kts | 346° |
| 2026-04-15 22:38 | 27.95595 | -81.03338 | 8649 ft | 286 kts | 346° |
| 2026-04-15 22:38 | 27.97527 | -81.03879 | 8652 ft | 286 kts | 346° |
| 2026-04-15 22:38 | 27.99444 | -81.04417 | 8650 ft | 286 kts | 346° |
| 2026-04-15 22:38 | 28.01379 | -81.04961 | 8647 ft | 286 kts | 346° |
| 2026-04-15 22:39 | 28.03306 | -81.05501 | 8645 ft | 285 kts | 346° |
| 2026-04-15 22:39 | 28.05247 | -81.06046 | 8644 ft | 285 kts | 346° |
| 2026-04-15 22:39 | 28.07182 | -81.06590 | 8637 ft | 285 kts | 346° |
| 2026-04-15 22:39 | 28.09087 | -81.07125 | 8643 ft | 284 kts | 346° |
| 2026-04-15 22:40 | 28.11027 | -81.07671 | 8650 ft | 284 kts | 346° |
| 2026-04-15 22:40 | 28.12955 | -81.08213 | 8649 ft | 285 kts | 346° |
| 2026-04-15 22:40 | 28.14889 | -81.08758 | 8647 ft | 285 kts | 346° |
| 2026-04-15 22:41 | 28.18739 | -81.09843 | 8633 ft | 284 kts | 346° |
| 2026-04-15 22:41 | 28.20666 | -81.10386 | 8654 ft | 283 kts | 346° |
| 2026-04-15 22:41 | 28.22571 | -81.10922 | 8640 ft | 282 kts | 346° |
| 2026-04-15 22:41 | 28.24466 | -81.11456 | 8656 ft | 282 kts | 346° |
| 2026-04-15 22:42 | 28.26399 | -81.12001 | 8661 ft | 283 kts | 346° |
| 2026-04-15 22:42 | 28.28313 | -81.12541 | 8660 ft | 284 kts | 346° |
| 2026-04-15 22:42 | 28.30230 | -81.13083 | 8660 ft | 284 kts | 346° |
| 2026-04-15 22:42 | 28.32167 | -81.13628 | 8662 ft | 284 kts | 346° |
| 2026-04-15 22:43 | 28.34084 | -81.14171 | 8663 ft | 284 kts | 346° |
| 2026-04-15 22:43 | 28.35989 | -81.14708 | 8663 ft | 284 kts | 346° |
| 2026-04-15 22:43 | 28.37924 | -81.15256 | 8662 ft | 285 kts | 346° |
| 2026-04-15 22:43 | 28.39853 | -81.15803 | 8662 ft | 285 kts | 346° |
| 2026-04-15 22:44 | 28.41785 | -81.16348 | 8662 ft | 285 kts | 346° |
| 2026-04-15 22:44 | 28.43730 | -81.16898 | 8662 ft | 285 kts | 346° |
| 2026-04-15 22:44 | 28.45670 | -81.17447 | 8662 ft | 285 kts | 346° |
| 2026-04-15 22:44 | 28.47540 | -81.17960 | 8587 ft | 271 kts | 347° |
| 2026-04-15 22:45 | 28.49344 | -81.18465 | 8332 ft | 263 kts | 347° |
| 2026-04-15 22:45 | 28.51113 | -81.18963 | 8091 ft | 257 kts | 347° |
| 2026-04-15 22:45 | 28.52828 | -81.19448 | 7850 ft | 251 kts | 347° |
| 2026-04-15 22:45 | 28.54514 | -81.19925 | 7608 ft | 247 kts | 347° |
| 2026-04-15 22:46 | 28.56187 | -81.20398 | 7364 ft | 244 kts | 347° |
| 2026-04-15 22:46 | 28.57821 | -81.20862 | 7125 ft | 241 kts | 347° |
| 2026-04-15 22:46 | 28.59435 | -81.21320 | 6885 ft | 238 kts | 347° |
| 2026-04-15 22:46 | 28.61040 | -81.21775 | 6645 ft | 236 kts | 347° |
| 2026-04-15 22:47 | 28.62641 | -81.22231 | 6403 ft | 235 kts | 347° |
| 2026-04-15 22:47 | 28.64226 | -81.22680 | 6163 ft | 234 kts | 347° |
| 2026-04-15 22:47 | 28.65797 | -81.23127 | 5923 ft | 233 kts | 347° |
| 2026-04-15 22:47 | 28.67372 | -81.23576 | 5682 ft | 232 kts | 347° |
| 2026-04-15 22:48 | 28.68951 | -81.24023 | 5441 ft | 232 kts | 347° |
| 2026-04-15 22:48 | 28.70525 | -81.24471 | 5201 ft | 231 kts | 347° |
| 2026-04-15 22:48 | 28.72076 | -81.24912 | 4962 ft | 231 kts | 347° |
| 2026-04-15 22:48 | 28.73648 | -81.25355 | 4721 ft | 230 kts | 347° |
| 2026-04-15 22:49 | 28.75209 | -81.25794 | 4493 ft | 229 kts | 347° |
| 2026-04-15 22:49 | 28.76752 | -81.26231 | 4352 ft | 224 kts | 347° |
| 2026-04-15 22:49 | 28.78252 | -81.26658 | 4208 ft | 220 kts | 347° |
| 2026-04-15 22:49 | 28.79733 | -81.27079 | 4063 ft | 217 kts | 347° |
| 2026-04-15 22:50 | 28.81200 | -81.27498 | 3919 ft | 215 kts | 347° |
| 2026-04-15 22:50 | 28.82640 | -81.27909 | 3776 ft | 213 kts | 347° |
| 2026-04-15 22:50 | 28.84084 | -81.28321 | 3632 ft | 211 kts | 347° |
| 2026-04-15 22:50 | 28.85502 | -81.28725 | 3483 ft | 210 kts | 347° |
| 2026-04-15 22:51 | 28.86910 | -81.29127 | 3339 ft | 209 kts | 347° |
| 2026-04-15 22:51 | 28.88316 | -81.29529 | 3195 ft | 208 kts | 347° |
| 2026-04-15 22:51 | 28.89725 | -81.29931 | 3052 ft | 207 kts | 346° |
| 2026-04-15 22:51 | 28.91129 | -81.30332 | 2907 ft | 206 kts | 347° |
| 2026-04-15 22:52 | 28.92516 | -81.30730 | 2763 ft | 205 kts | 347° |
| 2026-04-15 22:52 | 28.93901 | -81.31126 | 2620 ft | 205 kts | 347° |
| 2026-04-15 22:52 | 28.95293 | -81.31523 | 2476 ft | 205 kts | 347° |
| 2026-04-15 22:52 | 28.96690 | -81.31923 | 2328 ft | 205 kts | 348° |
| 2026-04-15 22:53 | 28.98061 | -81.32317 | 2188 ft | 205 kts | 348° |
| 2026-04-15 22:53 | 28.99453 | -81.32714 | 2089 ft | 202 kts | 348° |
| 2026-04-15 22:53 | 29.00794 | -81.33098 | 2071 ft | 196 kts | 348° |
| 2026-04-15 22:53 | 29.02096 | -81.33472 | 2065 ft | 190 kts | 348° |
| 2026-04-15 22:54 | 29.03362 | -81.33836 | 2063 ft | 185 kts | 348° |
| 2026-04-15 22:54 | 29.04603 | -81.34190 | 2062 ft | 180 kts | 348° |
| 2026-04-15 22:54 | 29.05821 | -81.34253 | 2042 ft | 170 kts | 24° |
| 2026-04-15 22:54 | 29.06680 | -81.33440 | 2065 ft | 158 kts | 59° |
| 2026-04-15 22:55 | 29.07177 | -81.32361 | 2065 ft | 150 kts | 68° |
| 2026-04-15 22:55 | 29.07584 | -81.31382 | 2185 ft | 131 kts | 66° |
| 2026-04-15 22:55 | 29.07976 | -81.30447 | 2084 ft | 128 kts | 66° |
| 2026-04-15 22:55 | 29.08353 | -81.29542 | 2070 ft | 120 kts | 66° |
| 2026-04-15 22:56 | 29.08704 | -81.28705 | 2067 ft | 116 kts | 66° |
| 2026-04-15 22:56 | 29.09051 | -81.27876 | 2070 ft | 116 kts | 65° |
| 2026-04-15 22:56 | 29.09401 | -81.27034 | 2071 ft | 116 kts | 66° |
| 2026-04-15 22:56 | 29.09746 | -81.26198 | 2072 ft | 116 kts | 66° |
| 2026-04-15 22:57 | 29.10092 | -81.25360 | 2073 ft | 116 kts | 66° |
| 2026-04-15 22:57 | 29.10444 | -81.24509 | 2071 ft | 117 kts | 66° |
| 2026-04-15 22:57 | 29.10787 | -81.23674 | 2070 ft | 117 kts | 66° |
| 2026-04-15 22:57 | 29.11134 | -81.22829 | 2071 ft | 117 kts | 66° |
| 2026-04-15 22:58 | 29.11481 | -81.21982 | 2071 ft | 117 kts | 66° |
| 2026-04-15 22:58 | 29.11827 | -81.21138 | 2071 ft | 117 kts | 66° |
| 2026-04-15 22:58 | 29.12169 | -81.20299 | 2070 ft | 117 kts | 66° |
| 2026-04-15 22:58 | 29.12516 | -81.19448 | 2072 ft | 117 kts | 66° |
| 2026-04-15 22:59 | 29.12862 | -81.18600 | 2003 ft | 123 kts | 66° |
| 2026-04-15 22:59 | 29.13242 | -81.17662 | 1858 ft | 134 kts | 66° |
| 2026-04-15 22:59 | 29.13625 | -81.16720 | 1762 ft | 132 kts | 67° |
| 2026-04-15 22:59 | 29.14006 | -81.15771 | 1576 ft | 128 kts | 68° |
| 2026-04-15 23:00 | 29.14370 | -81.14869 | 1406 ft | 118 kts | 67° |
| 2026-04-15 23:00 | 29.14711 | -81.14043 | 1247 ft | 111 kts | 66° |
| 2026-04-15 23:00 | 29.15034 | -81.13258 | 1100 ft | 108 kts | 67° |
| 2026-04-15 23:00 | 29.15350 | -81.12484 | 955 ft | 106 kts | 66° |
| 2026-04-15 23:01 | 29.15659 | -81.11721 | 816 ft | 105 kts | 66° |
| 2026-04-15 23:01 | 29.15964 | -81.10972 | 682 ft | 104 kts | 66° |
| 2026-04-15 23:01 | 29.16268 | -81.10236 | 557 ft | 102 kts | 67° |
| 2026-04-15 23:01 | 29.16571 | -81.09499 | 429 ft | 101 kts | 65° |
| 2026-04-15 23:02 | 29.16871 | -81.08764 | 290 ft | 102 kts | 66° |
| 2026-04-15 23:02 | 29.17167 | -81.08034 | 148 ft | 100 kts | 67° |
| 2026-04-15 23:02 | 29.17445 | -81.07330 | 39 ft | 94 kts | 66° |
| 2026-04-15 23:02 | 29.17662 | -81.06770 | 29 ft | 55 kts | 69° |
| 2026-04-15 23:03 | 29.17773 | -81.06499 | 29 ft | 25 kts | 60° |
| 2026-04-15 23:03 | 29.17865 | -81.06467 | 29 ft | 9 kts | 341° |
| 2026-04-15 23:03 | 29.17950 | -81.06448 | 29 ft | 17 kts | 65° |
| 2026-04-15 23:03 | 29.18006 | -81.06301 | 29 ft | 23 kts | 65° |
| 2026-04-15 23:04 | 29.18079 | -81.06120 | 29 ft | 26 kts | 68° |
| 2026-04-15 23:04 | 29.18156 | -81.05927 | 30 ft | 27 kts | 65° |
| 2026-04-15 23:04 | 29.18237 | -81.05725 | 32 ft | 28 kts | 64° |
| 2026-04-15 23:04 | 29.18321 | -81.05518 | 32 ft | 29 kts | 63° |
| 2026-04-15 23:05 | 29.18406 | -81.05306 | 32 ft | 29 kts | 65° |
| 2026-04-15 23:05 | 29.18460 | -81.05178 | 32 ft | 16 kts | 45° |
| 2026-04-15 23:05 | 29.18531 | -81.05149 | 32 ft | 8 kts | 340° |
| 2026-04-15 23:05 | 29.18549 | -81.05142 | 31 ft | 0 kts | 62° |